sensor_id;sensor_type;location;lat;lon;timestamp;pressure;altitude;pressure_sealevel;temperature;humidity
54144;BME280;40050;47.324;18.792;2023-06-19T00:01:15;1002.90;;;20.54;59.75
54144;BME280;40050;47.324;18.792;2023-06-19T00:03:16;1003.00;;;20.57;59.95
54144;BME280;40050;47.324;18.792;2023-06-19T00:05:17;1002.98;;;20.54;59.99
54144;BME280;40050;47.324;18.792;2023-06-19T00:07:18;1002.91;;;20.50;60.00
54144;BME280;40050;47.324;18.792;2023-06-19T00:09:19;1002.91;;;20.49;59.95
54144;BME280;40050;47.324;18.792;2023-06-19T00:11:20;1002.92;;;20.50;60.01
54144;BME280;40050;47.324;18.792;2023-06-19T00:13:21;1002.88;;;20.50;60.12
54144;BME280;40050;47.324;18.792;2023-06-19T00:15:21;1002.89;;;20.48;60.12
54144;BME280;40050;47.324;18.792;2023-06-19T00:17:22;1002.92;;;20.47;60.23
54144;BME280;40050;47.324;18.792;2023-06-19T00:19:23;1002.94;;;20.44;60.32
54144;BME280;40050;47.324;18.792;2023-06-19T00:21:25;1002.90;;;20.39;60.42
54144;BME280;40050;47.324;18.792;2023-06-19T00:23:26;1002.87;;;20.34;60.71
54144;BME280;40050;47.324;18.792;2023-06-19T00:25:27;1002.87;;;20.32;60.77
54144;BME280;40050;47.324;18.792;2023-06-19T00:27:27;1002.83;;;20.27;60.78
54144;BME280;40050;47.324;18.792;2023-06-19T00:29:32;1002.80;;;20.24;60.91
54144;BME280;40050;47.324;18.792;2023-06-19T00:31:33;1002.80;;;20.20;60.93
54144;BME280;40050;47.324;18.792;2023-06-19T00:33:34;1002.84;;;20.19;60.85
54144;BME280;40050;47.324;18.792;2023-06-19T00:35:35;1002.85;;;20.15;60.76
54144;BME280;40050;47.324;18.792;2023-06-19T00:37:36;1002.87;;;20.13;60.64
54144;BME280;40050;47.324;18.792;2023-06-19T00:39:37;1002.85;;;20.08;60.67
54144;BME280;40050;47.324;18.792;2023-06-19T00:41:38;1002.90;;;20.08;60.86
54144;BME280;40050;47.324;18.792;2023-06-19T00:43:41;1002.93;;;20.05;61.14
54144;BME280;40050;47.324;18.792;2023-06-19T00:45:42;1002.91;;;20.03;61.32
54144;BME280;40050;47.324;18.792;2023-06-19T00:47:43;1002.61;;;19.89;61.59
54144;BME280;40050;47.324;18.792;2023-06-19T00:49:45;1002.83;;;20.02;61.72
54144;BME280;40050;47.324;18.792;2023-06-19T00:51:46;1002.79;;;20.00;61.93
54144;BME280;40050;47.324;18.792;2023-06-19T00:53:47;1002.86;;;20.03;62.01
54144;BME280;40050;47.324;18.792;2023-06-19T00:55:48;1002.84;;;20.03;62.11
54144;BME280;40050;47.324;18.792;2023-06-19T00:57:49;1002.86;;;20.01;62.09
54144;BME280;40050;47.324;18.792;2023-06-19T00:59:51;1002.84;;;20.02;62.12
54144;BME280;40050;47.324;18.792;2023-06-19T01:01:52;1002.82;;;20.02;62.15
54144;BME280;40050;47.324;18.792;2023-06-19T01:03:53;1002.81;;;20.01;62.23
54144;BME280;40050;47.324;18.792;2023-06-19T01:05:54;1002.78;;;20.01;62.10
54144;BME280;40050;47.324;18.792;2023-06-19T01:07:59;1002.77;;;20.01;62.10
54144;BME280;40050;47.324;18.792;2023-06-19T01:10:04;1002.69;;;20.01;62.10
54144;BME280;40050;47.324;18.792;2023-06-19T01:12:13;1002.71;;;20.00;62.24
54144;BME280;40050;47.324;18.792;2023-06-19T01:14:21;1002.78;;;19.98;62.30
54144;BME280;40050;47.324;18.792;2023-06-19T01:16:26;1002.75;;;19.97;62.31
54144;BME280;40050;47.324;18.792;2023-06-19T01:18:28;1002.76;;;19.94;62.09
54144;BME280;40050;47.324;18.792;2023-06-19T01:20:30;1002.70;;;19.93;61.98
54144;BME280;40050;47.324;18.792;2023-06-19T01:22:31;1002.77;;;19.97;61.81
54144;BME280;40050;47.324;18.792;2023-06-19T01:24:32;1002.70;;;19.98;61.69
54144;BME280;40050;47.324;18.792;2023-06-19T01:26:36;1002.66;;;19.94;61.71
54144;BME280;40050;47.324;18.792;2023-06-19T01:28:37;1002.64;;;19.92;61.82
54144;BME280;40050;47.324;18.792;2023-06-19T01:30:39;1002.62;;;19.89;61.84
54144;BME280;40050;47.324;18.792;2023-06-19T01:32:43;1002.65;;;19.85;61.85
54144;BME280;40050;47.324;18.792;2023-06-19T01:34:46;1002.59;;;19.82;61.97
54144;BME280;40050;47.324;18.792;2023-06-19T01:36:47;1002.61;;;19.81;61.96
54144;BME280;40050;47.324;18.792;2023-06-19T01:38:48;1002.56;;;19.77;62.10
54144;BME280;40050;47.324;18.792;2023-06-19T01:40:50;1002.57;;;19.77;62.15
54144;BME280;40050;47.324;18.792;2023-06-19T01:42:52;1002.60;;;19.72;62.18
54144;BME280;40050;47.324;18.792;2023-06-19T01:44:54;1002.64;;;19.67;62.22
54144;BME280;40050;47.324;18.792;2023-06-19T01:46:55;1002.64;;;19.60;62.32
54144;BME280;40050;47.324;18.792;2023-06-19T01:48:56;1002.60;;;19.46;62.68
54144;BME280;40050;47.324;18.792;2023-06-19T01:50:57;1002.57;;;19.44;62.84
54144;BME280;40050;47.324;18.792;2023-06-19T01:52:57;1002.55;;;19.43;63.03
54144;BME280;40050;47.324;18.792;2023-06-19T01:54:58;1002.50;;;19.39;63.22
54144;BME280;40050;47.324;18.792;2023-06-19T01:56:59;1002.50;;;19.39;63.26
54144;BME280;40050;47.324;18.792;2023-06-19T01:59:00;1002.55;;;19.40;63.22
54144;BME280;40050;47.324;18.792;2023-06-19T02:01:01;1002.53;;;19.38;63.05
54144;BME280;40050;47.324;18.792;2023-06-19T02:03:02;1002.60;;;19.39;62.93
54144;BME280;40050;47.324;18.792;2023-06-19T02:05:03;1002.56;;;19.37;62.86
54144;BME280;40050;47.324;18.792;2023-06-19T02:07:04;1002.54;;;19.34;62.75
54144;BME280;40050;47.324;18.792;2023-06-19T02:09:06;1002.28;;;19.17;62.65
54144;BME280;40050;47.324;18.792;2023-06-19T02:11:07;1002.37;;;19.20;62.67
54144;BME280;40050;47.324;18.792;2023-06-19T02:13:07;1002.57;;;19.30;62.64
54144;BME280;40050;47.324;18.792;2023-06-19T02:15:09;1002.57;;;19.26;62.62
54144;BME280;40050;47.324;18.792;2023-06-19T02:17:10;1002.63;;;19.24;62.63
54144;BME280;40050;47.324;18.792;2023-06-19T02:19:11;1002.60;;;19.22;62.79
54144;BME280;40050;47.324;18.792;2023-06-19T02:21:13;1002.57;;;19.18;62.67
54144;BME280;40050;47.324;18.792;2023-06-19T02:23:14;1002.64;;;19.17;62.63
54144;BME280;40050;47.324;18.792;2023-06-19T02:25:15;1002.67;;;19.16;62.64
54144;BME280;40050;47.324;18.792;2023-06-19T02:27:15;1002.68;;;19.13;62.69
54144;BME280;40050;47.324;18.792;2023-06-19T02:29:16;1002.69;;;19.11;62.83
54144;BME280;40050;47.324;18.792;2023-06-19T02:31:17;1002.70;;;19.08;62.99
54144;BME280;40050;47.324;18.792;2023-06-19T02:33:18;1002.72;;;19.05;63.10
54144;BME280;40050;47.324;18.792;2023-06-19T02:35:19;1002.73;;;19.04;63.10
54144;BME280;40050;47.324;18.792;2023-06-19T02:37:20;1002.69;;;18.98;63.08
54144;BME280;40050;47.324;18.792;2023-06-19T02:39:21;1002.79;;;19.02;63.12
54144;BME280;40050;47.324;18.792;2023-06-19T02:41:22;1002.80;;;18.99;63.28
54144;BME280;40050;47.324;18.792;2023-06-19T02:43:23;1002.77;;;18.97;63.36
54144;BME280;40050;47.324;18.792;2023-06-19T02:45:24;1002.78;;;18.97;63.57
54144;BME280;40050;47.324;18.792;2023-06-19T02:47:25;1002.71;;;18.95;63.57
54144;BME280;40050;47.324;18.792;2023-06-19T02:49:25;1002.75;;;18.93;63.73
54144;BME280;40050;47.324;18.792;2023-06-19T02:51:26;1002.79;;;18.95;63.86
54144;BME280;40050;47.324;18.792;2023-06-19T02:53:27;1002.50;;;18.76;63.96
54144;BME280;40050;47.324;18.792;2023-06-19T02:55:28;1002.75;;;18.91;64.14
54144;BME280;40050;47.324;18.792;2023-06-19T02:57:29;1002.74;;;18.90;64.38
54144;BME280;40050;47.324;18.792;2023-06-19T02:59:30;1002.80;;;18.91;64.43
54144;BME280;40050;47.324;18.792;2023-06-19T03:01:31;1002.78;;;18.91;64.46
54144;BME280;40050;47.324;18.792;2023-06-19T03:03:32;1002.75;;;18.90;64.42
54144;BME280;40050;47.324;18.792;2023-06-19T03:05:33;1002.76;;;18.91;64.36
54144;BME280;40050;47.324;18.792;2023-06-19T03:07:34;1002.76;;;18.91;64.41
54144;BME280;40050;47.324;18.792;2023-06-19T03:09:35;1002.60;;;18.82;64.52
54144;BME280;40050;47.324;18.792;2023-06-19T03:11:36;1002.74;;;18.93;64.55
54144;BME280;40050;47.324;18.792;2023-06-19T03:13:47;1002.74;;;18.95;64.53
54144;BME280;40050;47.324;18.792;2023-06-19T03:15:48;1002.73;;;18.96;64.70
54144;BME280;40050;47.324;18.792;2023-06-19T03:17:49;1002.71;;;18.96;64.66
54144;BME280;40050;47.324;18.792;2023-06-19T03:19:50;1002.77;;;18.97;64.48
54144;BME280;40050;47.324;18.792;2023-06-19T03:21:51;1002.75;;;18.99;64.54
54144;BME280;40050;47.324;18.792;2023-06-19T03:23:52;1002.84;;;19.01;64.62
54144;BME280;40050;47.324;18.792;2023-06-19T03:25:53;1002.85;;;19.02;64.68
54144;BME280;40050;47.324;18.792;2023-06-19T03:27:53;1002.83;;;19.04;64.69
54144;BME280;40050;47.324;18.792;2023-06-19T03:29:54;1002.84;;;19.05;64.74
54144;BME280;40050;47.324;18.792;2023-06-19T03:31:55;1002.83;;;19.07;64.84
54144;BME280;40050;47.324;18.792;2023-06-19T03:33:56;1002.52;;;18.89;64.86
54144;BME280;40050;47.324;18.792;2023-06-19T03:35:57;1002.72;;;19.05;64.88
54144;BME280;40050;47.324;18.792;2023-06-19T03:37:58;1002.83;;;19.13;64.96
54144;BME280;40050;47.324;18.792;2023-06-19T03:39:59;1002.82;;;19.16;65.01
54144;BME280;40050;47.324;18.792;2023-06-19T03:42:00;1002.82;;;19.18;64.99
54144;BME280;40050;47.324;18.792;2023-06-19T03:44:01;1002.86;;;19.20;65.00
54144;BME280;40050;47.324;18.792;2023-06-19T03:46:02;1002.80;;;19.20;64.93
54144;BME280;40050;47.324;18.792;2023-06-19T03:48:03;1002.84;;;19.25;64.94
54144;BME280;40050;47.324;18.792;2023-06-19T03:50:05;1002.77;;;19.21;65.02
54144;BME280;40050;47.324;18.792;2023-06-19T03:52:06;1002.85;;;19.28;65.01
54144;BME280;40050;47.324;18.792;2023-06-19T03:54:07;1002.91;;;19.34;65.12
54144;BME280;40050;47.324;18.792;2023-06-19T03:56:08;1002.88;;;19.34;65.10
54144;BME280;40050;47.324;18.792;2023-06-19T03:58:09;1002.94;;;19.39;65.19
54144;BME280;40050;47.324;18.792;2023-06-19T04:00:10;1002.87;;;19.39;65.10
54144;BME280;40050;47.324;18.792;2023-06-19T04:02:11;1002.83;;;19.43;64.86
54144;BME280;40050;47.324;18.792;2023-06-19T04:04:12;1002.82;;;19.45;64.75
54144;BME280;40050;47.324;18.792;2023-06-19T04:06:13;1002.77;;;19.41;64.83
54144;BME280;40050;47.324;18.792;2023-06-19T04:08:15;1002.61;;;19.35;64.87
54144;BME280;40050;47.324;18.792;2023-06-19T04:10:16;1002.83;;;19.52;64.89
54144;BME280;40050;47.324;18.792;2023-06-19T04:12:17;1002.81;;;19.53;64.87
54144;BME280;40050;47.324;18.792;2023-06-19T04:14:18;1002.86;;;19.55;64.92
54144;BME280;40050;47.324;18.792;2023-06-19T04:16:19;1002.80;;;19.58;64.80
54144;BME280;40050;47.324;18.792;2023-06-19T04:18:20;1002.84;;;19.60;64.84
54144;BME280;40050;47.324;18.792;2023-06-19T04:20:21;1002.80;;;19.63;64.86
54144;BME280;40050;47.324;18.792;2023-06-19T04:22:21;1002.78;;;19.62;65.05
54144;BME280;40050;47.324;18.792;2023-06-19T04:24:22;1002.84;;;19.64;65.24
54144;BME280;40050;47.324;18.792;2023-06-19T04:26:23;1002.86;;;19.68;65.57
54144;BME280;40050;47.324;18.792;2023-06-19T04:28:24;1002.79;;;19.68;65.67
54144;BME280;40050;47.324;18.792;2023-06-19T04:30:25;1002.88;;;19.73;65.89
54144;BME280;40050;47.324;18.792;2023-06-19T04:32:26;1002.85;;;19.75;66.20
54144;BME280;40050;47.324;18.792;2023-06-19T04:34:27;1002.85;;;19.79;66.47
54144;BME280;40050;47.324;18.792;2023-06-19T04:36:28;1002.86;;;19.81;66.62
54144;BME280;40050;47.324;18.792;2023-06-19T04:38:29;1002.87;;;19.86;66.66
54144;BME280;40050;47.324;18.792;2023-06-19T04:40:30;1002.92;;;19.95;66.56
54144;BME280;40050;47.324;18.792;2023-06-19T04:42:31;1002.87;;;19.99;66.38
54144;BME280;40050;47.324;18.792;2023-06-19T04:44:32;1002.93;;;20.08;66.26
54144;BME280;40050;47.324;18.792;2023-06-19T04:46:33;1002.82;;;20.14;65.85
54144;BME280;40050;47.324;18.792;2023-06-19T04:48:33;1002.91;;;20.25;65.82
54144;BME280;40050;47.324;18.792;2023-06-19T04:50:34;1002.71;;;20.19;65.47
54144;BME280;40050;47.324;18.792;2023-06-19T04:52:35;1002.94;;;20.44;65.42
54144;BME280;40050;47.324;18.792;2023-06-19T04:54:36;1002.94;;;20.57;65.35
54144;BME280;40050;47.324;18.792;2023-06-19T04:56:37;1002.99;;;20.73;64.01
54144;BME280;40050;47.324;18.792;2023-06-19T04:58:38;1003.00;;;20.87;63.86
54144;BME280;40050;47.324;18.792;2023-06-19T05:00:39;1002.99;;;21.03;63.42
54144;BME280;40050;47.324;18.792;2023-06-19T05:02:40;1002.97;;;21.17;63.43
54144;BME280;40050;47.324;18.792;2023-06-19T05:04:41;1003.01;;;21.34;62.82
54144;BME280;40050;47.324;18.792;2023-06-19T05:06:42;1003.01;;;21.49;62.51
54144;BME280;40050;47.324;18.792;2023-06-19T05:08:42;1002.99;;;21.65;61.85
54144;BME280;40050;47.324;18.792;2023-06-19T05:10:43;1003.10;;;21.80;60.66
54144;BME280;40050;47.324;18.792;2023-06-19T05:12:44;1003.11;;;21.93;60.50
54144;BME280;40050;47.324;18.792;2023-06-19T05:14:45;1003.14;;;22.07;59.87
54144;BME280;40050;47.324;18.792;2023-06-19T05:16:46;1003.19;;;22.25;59.49
54144;BME280;40050;47.324;18.792;2023-06-19T05:18:47;1003.15;;;22.35;58.41
54144;BME280;40050;47.324;18.792;2023-06-19T05:20:48;1003.09;;;22.46;58.20
54144;BME280;40050;47.324;18.792;2023-06-19T05:22:49;1003.13;;;22.63;57.30
54144;BME280;40050;47.324;18.792;2023-06-19T05:24:50;1003.11;;;22.75;57.24
54144;BME280;40050;47.324;18.792;2023-06-19T05:26:51;1003.15;;;22.90;57.51
54144;BME280;40050;47.324;18.792;2023-06-19T05:28:52;1003.11;;;23.04;56.95
54144;BME280;40050;47.324;18.792;2023-06-19T05:30:53;1003.14;;;23.20;56.20
54144;BME280;40050;47.324;18.792;2023-06-19T05:32:54;1003.17;;;23.32;56.13
54144;BME280;40050;47.324;18.792;2023-06-19T05:34:54;1003.15;;;23.47;56.63
54144;BME280;40050;47.324;18.792;2023-06-19T05:36:56;1003.16;;;23.64;55.79
54144;BME280;40050;47.324;18.792;2023-06-19T05:38:57;1003.16;;;23.79;55.65
54144;BME280;40050;47.324;18.792;2023-06-19T05:40:58;1003.15;;;23.89;54.38
54144;BME280;40050;47.324;18.792;2023-06-19T05:42:59;1003.15;;;23.96;55.01
54144;BME280;40050;47.324;18.792;2023-06-19T05:45:00;1003.10;;;24.06;54.03
54144;BME280;40050;47.324;18.792;2023-06-19T05:47:01;1003.11;;;24.17;53.70
54144;BME280;40050;47.324;18.792;2023-06-19T05:49:02;1003.13;;;24.21;53.28
54144;BME280;40050;47.324;18.792;2023-06-19T05:51:03;1003.17;;;24.29;52.93
54144;BME280;40050;47.324;18.792;2023-06-19T05:53:04;1003.20;;;24.38;53.53
54144;BME280;40050;47.324;18.792;2023-06-19T05:55:05;1003.27;;;24.53;53.71
54144;BME280;40050;47.324;18.792;2023-06-19T05:57:06;1003.29;;;24.67;53.20
54144;BME280;40050;47.324;18.792;2023-06-19T05:59:07;1003.33;;;24.83;53.21
54144;BME280;40050;47.324;18.792;2023-06-19T06:01:08;1003.37;;;24.99;52.45
54144;BME280;40050;47.324;18.792;2023-06-19T06:03:09;1003.40;;;25.12;51.52
54144;BME280;40050;47.324;18.792;2023-06-19T06:05:10;1003.41;;;25.22;50.90
54144;BME280;40050;47.324;18.792;2023-06-19T06:07:11;1003.47;;;25.33;50.91
54144;BME280;40050;47.324;18.792;2023-06-19T06:09:12;1003.47;;;25.49;51.07
54144;BME280;40050;47.324;18.792;2023-06-19T06:11:13;1003.46;;;25.61;50.23
54144;BME280;40050;47.324;18.792;2023-06-19T06:13:14;1003.46;;;25.65;49.37
54144;BME280;40050;47.324;18.792;2023-06-19T06:15:15;1003.45;;;25.69;48.93
54144;BME280;40050;47.324;18.792;2023-06-19T06:17:16;1003.51;;;25.72;48.24
54144;BME280;40050;47.324;18.792;2023-06-19T06:19:17;1003.53;;;25.77;48.06
54144;BME280;40050;47.324;18.792;2023-06-19T06:21:19;1003.52;;;25.74;47.51
54144;BME280;40050;47.324;18.792;2023-06-19T06:23:19;1003.53;;;25.76;47.71
54144;BME280;40050;47.324;18.792;2023-06-19T06:25:20;1003.55;;;25.73;47.73
54144;BME280;40050;47.324;18.792;2023-06-19T06:27:21;1003.55;;;25.77;48.37
54144;BME280;40050;47.324;18.792;2023-06-19T06:29:22;1003.52;;;25.84;47.95
54144;BME280;40050;47.324;18.792;2023-06-19T06:31:23;1003.54;;;25.95;47.97
54144;BME280;40050;47.324;18.792;2023-06-19T06:33:24;1003.58;;;25.97;47.73
54144;BME280;40050;47.324;18.792;2023-06-19T06:35:25;1003.57;;;26.11;47.35
54144;BME280;40050;47.324;18.792;2023-06-19T06:37:26;1003.61;;;26.30;47.79
54144;BME280;40050;47.324;18.792;2023-06-19T19:16:25;1002.09;;;30.13;40.66
54144;BME280;40050;47.324;18.792;2023-06-19T19:18:26;1002.25;;;30.07;40.84
54144;BME280;40050;47.324;18.792;2023-06-19T19:20:27;1002.26;;;29.99;41.08
54144;BME280;40050;47.324;18.792;2023-06-19T19:22:34;1002.29;;;29.87;41.32
54144;BME280;40050;47.324;18.792;2023-06-19T19:24:35;1002.28;;;29.74;41.55
54144;BME280;40050;47.324;18.792;2023-06-19T19:26:36;1002.28;;;29.59;41.76
54144;BME280;40050;47.324;18.792;2023-06-19T19:28:40;1002.26;;;29.41;42.60
54144;BME280;40050;47.324;18.792;2023-06-19T19:30:43;1002.19;;;29.24;42.96
54144;BME280;40050;47.324;18.792;2023-06-19T19:32:47;1002.32;;;29.14;43.10
54144;BME280;40050;47.324;18.792;2023-06-19T19:41:07;1002.28;;;28.44;44.61
54144;BME280;40050;47.324;18.792;2023-06-19T19:43:08;1002.29;;;28.32;44.81
54144;BME280;40050;47.324;18.792;2023-06-19T19:45:09;1002.36;;;28.25;44.87
54144;BME280;40050;47.324;18.792;2023-06-19T19:47:10;1002.35;;;28.12;45.13
54144;BME280;40050;47.324;18.792;2023-06-19T19:49:11;1002.43;;;28.05;45.40
54144;BME280;40050;47.324;18.792;2023-06-19T19:51:12;1002.48;;;27.95;45.55
54144;BME280;40050;47.324;18.792;2023-06-19T19:53:13;1002.49;;;27.85;45.72
54144;BME280;40050;47.324;18.792;2023-06-19T19:55:14;1002.50;;;27.78;45.65
54144;BME280;40050;47.324;18.792;2023-06-19T19:57:15;1002.50;;;27.71;45.62
54144;BME280;40050;47.324;18.792;2023-06-19T19:59:16;1002.53;;;27.72;45.68
54144;BME280;40050;47.324;18.792;2023-06-19T20:01:17;1002.51;;;27.69;45.64
54144;BME280;40050;47.324;18.792;2023-06-19T20:03:18;1002.60;;;27.71;46.05
54144;BME280;40050;47.324;18.792;2023-06-19T20:05:18;1002.59;;;27.67;46.25
54144;BME280;40050;47.324;18.792;2023-06-19T20:07:22;1002.63;;;27.63;46.33
54144;BME280;40050;47.324;18.792;2023-06-19T20:09:23;1002.65;;;27.56;46.75
54144;BME280;40050;47.324;18.792;2023-06-19T20:11:24;1002.60;;;27.47;47.14
54144;BME280;40050;47.324;18.792;2023-06-19T20:13:25;1002.59;;;27.39;47.24
54144;BME280;40050;47.324;18.792;2023-06-19T20:15:26;1002.57;;;27.30;47.19
54144;BME280;40050;47.324;18.792;2023-06-19T20:17:27;1002.61;;;27.21;47.48
54144;BME280;40050;47.324;18.792;2023-06-19T20:19:28;1002.63;;;27.11;47.61
54144;BME280;40050;47.324;18.792;2023-06-19T20:21:29;1002.65;;;27.05;47.75
54144;BME280;40050;47.324;18.792;2023-06-19T20:23:29;1002.64;;;26.96;47.89
54144;BME280;40050;47.324;18.792;2023-06-19T20:25:30;1002.67;;;26.86;48.12
54144;BME280;40050;47.324;18.792;2023-06-19T20:27:31;1002.66;;;26.79;48.39
54144;BME280;40050;47.324;18.792;2023-06-19T20:29:32;1002.65;;;26.70;48.63
54144;BME280;40050;47.324;18.792;2023-06-19T20:31:33;1002.65;;;26.64;48.80
54144;BME280;40050;47.324;18.792;2023-06-19T20:33:34;1002.64;;;26.57;48.99
54144;BME280;40050;47.324;18.792;2023-06-19T20:35:35;1002.64;;;26.51;49.24
54144;BME280;40050;47.324;18.792;2023-06-19T20:37:36;1002.66;;;26.45;49.33
54144;BME280;40050;47.324;18.792;2023-06-19T20:39:37;1002.68;;;26.42;49.36
54144;BME280;40050;47.324;18.792;2023-06-19T20:41:37;1002.67;;;26.42;49.31
54144;BME280;40050;47.324;18.792;2023-06-19T20:43:38;1002.67;;;26.40;49.21
54144;BME280;40050;47.324;18.792;2023-06-19T20:45:39;1002.71;;;26.44;48.88
54144;BME280;40050;47.324;18.792;2023-06-19T20:47:40;1002.77;;;26.46;49.06
54144;BME280;40050;47.324;18.792;2023-06-19T20:49:41;1002.77;;;26.42;49.47
54144;BME280;40050;47.324;18.792;2023-06-19T20:51:42;1002.70;;;26.31;49.39
54144;BME280;40050;47.324;18.792;2023-06-19T20:53:43;1002.74;;;26.23;49.53
54144;BME280;40050;47.324;18.792;2023-06-19T20:55:44;1002.74;;;26.16;49.85
54144;BME280;40050;47.324;18.792;2023-06-19T20:57:45;1002.78;;;26.08;50.01
54144;BME280;40050;47.324;18.792;2023-06-19T20:59:46;1002.80;;;26.03;50.30
54144;BME280;40050;47.324;18.792;2023-06-19T21:01:47;1002.71;;;25.92;50.32
54144;BME280;40050;47.324;18.792;2023-06-19T21:03:48;1002.82;;;25.89;50.45
54144;BME280;40050;47.324;18.792;2023-06-19T21:05:49;1002.86;;;25.84;50.42
54144;BME280;40050;47.324;18.792;2023-06-19T21:07:50;1002.87;;;25.73;50.38
54144;BME280;40050;47.324;18.792;2023-06-19T21:09:51;1002.93;;;25.73;50.72
54144;BME280;40050;47.324;18.792;2023-06-19T21:11:52;1002.85;;;25.64;50.89
54144;BME280;40050;47.324;18.792;2023-06-19T21:13:53;1002.84;;;25.58;51.10
54144;BME280;40050;47.324;18.792;2023-06-19T21:15:54;1002.92;;;25.56;51.30
54144;BME280;40050;47.324;18.792;2023-06-19T21:17:54;1002.92;;;25.52;51.44
54144;BME280;40050;47.324;18.792;2023-06-19T21:19:55;1002.96;;;25.47;51.41
54144;BME280;40050;47.324;18.792;2023-06-19T21:21:56;1003.00;;;25.46;51.67
54144;BME280;40050;47.324;18.792;2023-06-19T21:23:57;1002.98;;;25.42;51.87
54144;BME280;40050;47.324;18.792;2023-06-19T21:25:58;1002.96;;;25.33;51.81
54144;BME280;40050;47.324;18.792;2023-06-19T21:27:59;1003.05;;;25.32;51.98
54144;BME280;40050;47.324;18.792;2023-06-19T21:30:00;1003.02;;;25.24;52.18
54144;BME280;40050;47.324;18.792;2023-06-19T21:32:01;1003.00;;;25.22;52.29
54144;BME280;40050;47.324;18.792;2023-06-19T21:34:02;1003.00;;;25.17;52.38
54144;BME280;40050;47.324;18.792;2023-06-19T21:36:03;1003.01;;;25.14;52.61
54144;BME280;40050;47.324;18.792;2023-06-19T21:38:04;1003.06;;;25.12;52.81
54144;BME280;40050;47.324;18.792;2023-06-19T21:40:05;1003.08;;;25.08;52.91
54144;BME280;40050;47.324;18.792;2023-06-19T21:42:06;1003.00;;;25.01;52.70
54144;BME280;40050;47.324;18.792;2023-06-19T21:44:07;1003.07;;;25.05;52.60
54144;BME280;40050;47.324;18.792;2023-06-19T21:46:08;1003.09;;;25.03;52.55
54144;BME280;40050;47.324;18.792;2023-06-19T21:48:09;1003.11;;;24.94;52.69
54144;BME280;40050;47.324;18.792;2023-06-19T21:50:10;1003.08;;;24.89;53.19
54144;BME280;40050;47.324;18.792;2023-06-19T21:52:11;1003.15;;;24.84;53.30
54144;BME280;40050;47.324;18.792;2023-06-19T21:54:12;1003.04;;;24.79;53.13
54144;BME280;40050;47.324;18.792;2023-06-19T21:56:13;1003.04;;;24.76;53.75
54144;BME280;40050;47.324;18.792;2023-06-19T21:58:14;1003.06;;;24.75;53.60
54144;BME280;40050;47.324;18.792;2023-06-19T22:00:15;1003.08;;;24.71;53.63
54144;BME280;40050;47.324;18.792;2023-06-19T22:02:16;1003.05;;;24.65;53.77
54144;BME280;40050;47.324;18.792;2023-06-19T22:04:17;1003.09;;;24.62;53.71
54144;BME280;40050;47.324;18.792;2023-06-19T22:06:21;1003.13;;;24.60;53.58
54144;BME280;40050;47.324;18.792;2023-06-19T22:08:27;1003.22;;;24.60;53.88
54144;BME280;40050;47.324;18.792;2023-06-19T22:10:28;1003.26;;;24.55;53.80
54144;BME280;40050;47.324;18.792;2023-06-19T22:12:29;1003.19;;;24.51;53.75
54144;BME280;40050;47.324;18.792;2023-06-19T22:14:30;1003.27;;;24.50;53.71
54144;BME280;40050;47.324;18.792;2023-06-19T22:16:31;1003.25;;;24.47;53.90
54144;BME280;40050;47.324;18.792;2023-06-19T22:18:32;1003.25;;;24.42;54.11
54144;BME280;40050;47.324;18.792;2023-06-19T22:20:33;1003.20;;;24.38;54.40
54144;BME280;40050;47.324;18.792;2023-06-19T22:22:34;1003.23;;;24.32;54.64
54144;BME280;40050;47.324;18.792;2023-06-19T22:24:35;1003.20;;;24.27;54.64
54144;BME280;40050;47.324;18.792;2023-06-19T22:26:36;1003.21;;;24.21;54.75
54144;BME280;40050;47.324;18.792;2023-06-19T22:28:37;1003.22;;;24.17;54.74
54144;BME280;40050;47.324;18.792;2023-06-19T22:30:38;1003.26;;;24.13;54.84
54144;BME280;40050;47.324;18.792;2023-06-19T22:32:39;1003.24;;;24.03;55.03
54144;BME280;40050;47.324;18.792;2023-06-19T22:34:40;1003.27;;;24.03;55.30
54144;BME280;40050;47.324;18.792;2023-06-19T22:36:40;1003.25;;;23.97;55.49
54144;BME280;40050;47.324;18.792;2023-06-19T22:38:41;1003.32;;;23.94;55.63
54144;BME280;40050;47.324;18.792;2023-06-19T22:40:42;1003.29;;;23.89;55.88
54144;BME280;40050;47.324;18.792;2023-06-19T22:42:43;1003.27;;;23.85;56.02
54144;BME280;40050;47.324;18.792;2023-06-19T22:44:44;1003.28;;;23.81;56.20
54144;BME280;40050;47.324;18.792;2023-06-19T22:46:45;1003.21;;;23.74;56.22
54144;BME280;40050;47.324;18.792;2023-06-19T22:48:46;1003.22;;;23.74;56.36
54144;BME280;40050;47.324;18.792;2023-06-19T22:50:47;1003.22;;;23.70;56.51
54144;BME280;40050;47.324;18.792;2023-06-19T22:52:48;1003.16;;;23.63;56.62
54144;BME280;40050;47.324;18.792;2023-06-19T22:54:49;1003.18;;;23.64;56.73
54144;BME280;40050;47.324;18.792;2023-06-19T22:56:50;1003.15;;;23.62;57.03
54144;BME280;40050;47.324;18.792;2023-06-19T22:58:51;1003.11;;;23.60;57.16
54144;BME280;40050;47.324;18.792;2023-06-19T23:00:52;1003.04;;;23.56;57.27
54144;BME280;40050;47.324;18.792;2023-06-19T23:02:53;1003.06;;;23.50;57.48
54144;BME280;40050;47.324;18.792;2023-06-19T23:04:53;1003.09;;;23.48;57.57
54144;BME280;40050;47.324;18.792;2023-06-19T23:06:54;1003.06;;;23.46;57.68
54144;BME280;40050;47.324;18.792;2023-06-19T23:08:55;1003.09;;;23.44;57.79
54144;BME280;40050;47.324;18.792;2023-06-19T23:10:56;1003.09;;;23.40;57.83
54144;BME280;40050;47.324;18.792;2023-06-19T23:12:57;1003.14;;;23.40;57.89
54144;BME280;40050;47.324;18.792;2023-06-19T23:14:58;1003.11;;;23.35;58.05
54144;BME280;40050;47.324;18.792;2023-06-19T23:16:59;1003.03;;;23.27;58.13
54144;BME280;40050;47.324;18.792;2023-06-19T23:19:00;1003.08;;;23.28;58.13
54144;BME280;40050;47.324;18.792;2023-06-19T23:21:01;1003.11;;;23.26;58.29
54144;BME280;40050;47.324;18.792;2023-06-19T23:23:02;1003.04;;;23.19;58.32
54144;BME280;40050;47.324;18.792;2023-06-19T23:25:03;1003.00;;;23.16;58.29